Time;durP1;ratioP1;P1;durP2;ratioP2;P2;SDS_P1;SDS_P2;PMS_P1;PMS_P2;Temp;Humidity;BMP_temperature;BMP_pressure;BME280_temperature;BME280_humidity;BME280_pressure;Samples;Min_cycle;Max_cycle;Signal;HPM_P1;HPM_P2
2022/06/14 00:01:35;;;;;;;7.60;4.20;;;9.40;99.90;;;;;;5092774;28;20050;-74
2022/06/14 00:04:02;;;;;;;11.35;4.60;;;9.30;99.90;;;;;;5091400;28;20105;-74
2022/06/14 00:06:30;;;;;;;8.35;4.60;;;9.30;99.90;;;;;;5091594;28;20048;-74
2022/06/14 00:08:57;;;;;;;12.50;5.30;;;9.20;99.90;;;;;;5093033;28;20372;-75
2022/06/14 00:11:25;;;;;;;14.20;6.13;;;9.20;99.90;;;;;;5092804;28;20036;-74
2022/06/14 00:13:52;;;;;;;9.77;5.35;;;9.20;99.90;;;;;;5074887;28;20134;-74
2022/06/14 00:16:19;;;;;;;13.60;6.35;;;9.10;99.90;;;;;;5092868;28;20032;-74
2022/06/14 00:18:45;;;;;;;17.40;6.47;;;9.10;99.90;;;;;;5091522;28;20400;-75
2022/06/14 00:21:11;;;;;;;15.85;6.38;;;9.10;99.90;;;;;;5094303;28;20044;-74
2022/06/14 00:23:37;;;;;;;18.05;6.55;;;9.10;99.90;;;;;;5095247;28;20043;-74
2022/06/14 00:26:03;;;;;;;19.70;7.00;;;9.10;99.90;;;;;;5094704;28;20036;-74
2022/06/14 00:28:32;;;;;;;16.13;7.00;;;9.10;99.90;;;;;;5096689;28;20043;-74
2022/06/14 00:31:06;;;;;;;12.00;6.20;;;9.10;99.90;;;;;;5078532;28;20036;-74
2022/06/14 00:33:32;;;;;;;17.75;6.50;;;9.10;99.90;;;;;;5095374;28;20043;-74
2022/06/14 00:36:06;;;;;;;14.30;7.00;;;9.10;99.90;;;;;;5095145;28;20073;-74
2022/06/14 00:38:34;;;;;;;15.88;6.30;;;9.10;99.90;;;;;;5095044;28;20040;-75
2022/06/14 00:41:02;;;;;;;13.75;6.50;;;9.10;99.90;;;;;;5095471;28;20080;-74
2022/06/14 00:43:30;;;;;;;17.15;6.50;;;9.10;99.90;;;;;;5102709;28;20064;-74
2022/06/14 00:46:25;;;;;;;12.77;7.10;;;9.10;99.90;;;;;;5116723;28;20492;-74
2022/06/14 00:49:00;;;;;;;10.32;5.38;;;9.10;99.90;;;;;;5098249;28;20040;-74
2022/06/14 00:51:30;;;;;;;24.20;6.07;;;9.10;99.90;;;;;;5098238;28;20067;-74
2022/06/14 00:54:19;;;;;;;11.95;6.32;;;9.00;99.90;;;;;;5098170;28;20044;-74
2022/06/14 00:56:59;;;;;;;24.77;7.10;;;8.90;99.90;;;;;;5114280;28;20043;-74
2022/06/14 00:59:39;;;;;;;15.63;6.90;;;8.90;99.90;;;;;;5098358;28;20077;-74
2022/06/14 01:02:25;;;;;;;30.45;8.38;;;8.80;99.90;;;;;;5098350;28;20035;-74
2022/06/14 01:04:52;;;;;;;12.73;4.75;;;8.80;99.90;;;;;;5097974;28;20105;-74
2022/06/14 01:07:24;;;;;;;11.40;4.80;;;8.80;99.90;;;;;;5097964;28;20118;-74
2022/06/14 01:10:04;;;;;;;10.70;4.68;;;8.70;99.90;;;;;;5098117;28;20036;-74
2022/06/14 01:12:34;;;;;;;17.77;6.43;;;8.60;99.90;;;;;;5097932;28;20513;-74
2022/06/14 01:15:17;;;;;;;18.13;7.18;;;8.60;99.90;;;;;;5097775;28;20047;-74
2022/06/14 01:18:05;;;;;;;12.80;5.38;;;8.60;99.90;;;;;;5081116;28;20048;-74
2022/06/14 01:20:32;;;;;;;15.73;6.95;;;8.50;99.90;;;;;;5079964;28;20612;-74
2022/06/14 01:22:58;;;;;;;18.42;6.43;;;8.50;99.90;;;;;;5097896;28;20067;-74
2022/06/14 01:25:30;;;;;;;18.52;7.53;;;8.50;99.90;;;;;;5080718;28;20050;-74
2022/06/14 01:27:57;;;;;;;16.23;7.75;;;8.50;99.90;;;;;;5113590;28;20039;-74
2022/06/14 01:30:31;;;;;;;18.55;7.72;;;8.50;99.90;;;;;;5097801;28;20036;-74
2022/06/14 01:33:08;;;;;;;21.67;7.05;;;8.60;99.90;;;;;;5096992;28;20123;-74
2022/06/14 01:35:37;;;;;;;114.18;14.95;;;8.60;99.90;;;;;;5115897;28;20039;-74
2022/06/14 01:38:09;;;;;;;28.38;6.45;;;8.60;99.90;;;;;;5080888;28;20043;-73
2022/06/14 01:41:20;;;;;;;22.77;7.05;;;8.60;99.90;;;;;;5097513;28;20043;-74
2022/06/14 01:44:02;;;;;;;20.60;5.18;;;8.50;99.90;;;;;;5093203;28;20503;-73
2022/06/14 01:46:34;;;;;;;17.10;8.43;;;8.60;99.90;;;;;;5097435;28;20043;-73
2022/06/14 01:52:31;;;;;;;23.95;9.68;;;8.50;99.90;;;;;;5115498;28;20032;-73
2022/06/14 01:55:04;;;;;;;23.98;11.75;;;8.60;99.90;;;;;;5097078;28;20100;-73
2022/06/14 01:57:48;;;;;;;22.90;10.88;;;8.60;99.90;;;;;;5095247;28;20453;-74
2022/06/14 02:00:39;;;;;;;20.55;9.93;;;8.70;99.90;;;;;;5096921;28;20048;-73
2022/06/14 02:06:25;;;;;;;33.88;13.38;;;8.70;99.90;;;;;;5115306;28;20051;-73
2022/06/14 02:09:02;;;;;;;364.73;25.50;;;8.70;99.90;;;;;;5097099;28;20039;-73
2022/06/14 02:11:35;;;;;;;327.10;25.95;;;8.70;99.90;;;;;;5096740;28;20502;-73
2022/06/14 02:14:14;;;;;;;60.60;14.20;;;8.70;99.90;;;;;;5114944;28;20097;-73
2022/06/14 02:16:47;;;;;;;27.73;13.15;;;8.60;99.90;;;;;;5114990;28;20035;-73
2022/06/14 02:19:38;;;;;;;24.80;12.23;;;8.60;99.90;;;;;;5114998;28;20040;-73
2022/06/14 02:22:10;;;;;;;18.98;12.27;;;8.70;99.90;;;;;;5101299;28;20071;-73
2022/06/14 02:24:44;;;;;;;29.80;14.00;;;8.70;99.90;;;;;;5096467;28;20046;-73
2022/06/14 02:27:19;;;;;;;19.13;10.23;;;8.70;99.90;;;;;;5112807;28;20084;-73
2022/06/14 02:29:52;;;;;;;20.30;9.52;;;8.70;99.90;;;;;;5096295;28;20046;-73
2022/06/14 02:32:24;;;;;;;23.75;11.27;;;8.70;99.90;;;;;;5096342;28;20047;-73
2022/06/14 02:34:52;;;;;;;23.58;11.70;;;8.70;99.90;;;;;;5114473;28;20083;-73
2022/06/14 02:37:29;;;;;;;24.33;11.45;;;8.70;99.90;;;;;;5114746;28;20039;-73
2022/06/14 02:43:11;;;;;;;25.15;10.65;;;8.70;99.90;;;;;;5095960;28;20551;-71
2022/06/14 02:45:44;;;;;;;16.65;8.15;;;8.70;99.90;;;;;;5094975;28;20044;-71
2022/06/14 02:48:20;;;;;;;17.33;9.30;;;8.70;99.90;;;;;;5114512;28;20051;-71
2022/06/14 02:51:11;;;;;;;19.90;9.00;;;8.70;99.90;;;;;;5096197;28;20084;-71
2022/06/14 02:53:54;;;;;;;17.75;8.68;;;8.70;99.90;;;;;;5114056;28;20044;-72
2022/06/14 02:56:29;;;;;;;15.68;8.85;;;8.70;99.90;;;;;;5093915;28;20104;-72
2022/06/14 02:59:07;;;;;;;14.27;6.63;;;8.70;99.90;;;;;;5095771;28;20044;-72
2022/06/14 03:01:45;;;;;;;13.82;6.32;;;8.70;99.90;;;;;;5095802;28;20118;-71
2022/06/14 03:04:20;;;;;;;14.73;7.88;;;8.70;99.90;;;;;;5095925;28;20036;-71
2022/06/14 03:07:02;;;;;;;17.92;8.00;;;8.70;99.90;;;;;;5095784;28;20391;-71
2022/06/14 03:09:31;;;;;;;16.27;7.57;;;8.70;99.90;;;;;;5095674;28;20115;-72
2022/06/14 03:12:35;;;;;;;66.40;9.65;;;8.60;99.90;;;;;;5095521;28;20040;-71
2022/06/14 03:15:12;;;;;;;49.88;9.40;;;8.70;99.90;;;;;;5114034;28;20406;-71
2022/06/14 03:17:38;;;;;;;32.03;8.90;;;8.70;99.90;;;;;;5113783;28;20051;-71
2022/06/14 03:20:16;;;;;;;46.92;8.00;;;8.60;99.90;;;;;;5095386;28;20125;-71
2022/06/14 03:22:47;;;;;;;114.63;12.43;;;8.60;99.90;;;;;;5113653;28;20513;-71
2022/06/14 03:25:39;;;;;;;30.70;10.10;;;8.70;99.90;;;;;;5113672;28;20127;-71
2022/06/14 03:28:30;;;;;;;23.55;8.43;;;8.70;99.90;;;;;;5111338;28;20455;-71
2022/06/14 03:30:58;;;;;;;;;;;8.70;99.90;;;;;;5095978;28;20078;-71
2022/06/14 03:33:38;;;;;;;24.23;9.55;;;8.70;99.90;;;;;;5129328;27;19915;-71
2022/06/14 03:36:06;;;;;;;18.05;9.32;;;8.60;99.90;;;;;;5095480;28;20036;-71
2022/06/14 03:38:44;;;;;;;20.95;9.23;;;8.60;99.90;;;;;;5113531;28;20086;-71
2022/06/14 03:41:13;;;;;;;17.80;9.00;;;8.70;99.90;;;;;;5095357;28;20032;-71
2022/06/14 03:43:40;;;;;;;23.65;10.10;;;8.70;99.90;;;;;;5113275;28;20067;-71
2022/06/14 03:46:21;;;;;;;21.23;10.13;;;8.70;99.90;;;;;;5113580;28;20391;-71
2022/06/14 03:48:52;;;;;;;63.65;14.13;;;8.80;99.90;;;;;;5095416;28;20078;-71
2022/06/14 03:51:33;;;;;;;45.60;9.48;;;8.90;99.90;;;;;;5095021;28;20119;-70
2022/06/14 03:54:16;;;;;;;17.20;8.38;;;8.90;99.90;;;;;;5092987;28;20043;-70
2022/06/14 03:57:00;;;;;;;50.47;9.20;;;8.90;99.90;;;;;;5106119;28;20566;-71
2022/06/14 03:59:47;;;;;;;23.95;8.55;;;8.90;99.90;;;;;;5092884;28;20075;-71
2022/06/14 04:05:25;;;;;;;12.05;6.97;;;9.00;99.90;;;;;;5074583;28;20044;-71
2022/06/14 04:08:18;;;;;;;15.38;7.65;;;9.00;99.90;;;;;;5075069;28;20620;-71
2022/06/14 04:10:52;;;;;;;16.08;8.50;;;9.00;99.90;;;;;;5108317;28;20048;-72
2022/06/14 04:13:44;;;;;;;18.27;8.55;;;9.00;99.90;;;;;;5093080;28;20032;-70
2022/06/14 04:16:53;;;;;;;17.88;9.07;;;9.10;99.90;;;;;;5074495;28;20107;-71
2022/06/14 04:19:47;;;;;;;12.77;6.97;;;9.00;99.90;;;;;;5072224;28;20052;-70
2022/06/14 04:22:26;;;;;;;13.48;6.53;;;9.10;99.90;;;;;;5074514;28;20040;-70
2022/06/14 04:25:24;;;;;;;18.07;8.97;;;9.10;99.90;;;;;;5074531;28;20047;-71
2022/06/14 04:28:16;;;;;;;19.70;7.90;;;9.20;99.90;;;;;;5105667;28;20055;-71
2022/06/14 04:31:10;;;;;;;9.77;6.25;;;9.20;99.90;;;;;;5092580;28;20054;-71
2022/06/14 04:33:44;;;;;;;12.77;6.25;;;9.20;99.90;;;;;;5108216;28;20527;-71
2022/06/14 04:36:26;;;;;;;11.40;7.07;;;9.30;99.90;;;;;;5092721;28;20037;-71
2022/06/14 04:39:15;;;;;;;15.77;7.80;;;9.30;99.90;;;;;;5074741;28;20043;-71
2022/06/14 04:41:55;;;;;;;14.68;7.85;;;9.40;99.90;;;;;;5074332;28;20040;-71
2022/06/14 04:44:38;;;;;;;23.93;8.17;;;9.40;99.90;;;;;;5090998;28;20067;-71
2022/06/14 04:47:14;;;;;;;16.83;8.57;;;9.60;99.90;;;;;;5074485;28;20055;-71
2022/06/14 04:49:48;;;;;;;18.65;8.50;;;9.60;99.90;;;;;;5074396;28;20475;-70
2022/06/14 04:52:19;;;;;;;16.42;9.13;;;9.70;99.90;;;;;;5082131;28;20118;-71
2022/06/14 04:54:57;;;;;;;15.60;7.85;;;9.80;99.90;;;;;;5094456;28;20082;-71
2022/06/14 04:57:55;;;;;;;18.42;10.00;;;9.90;99.90;;;;;;5092596;28;20040;-71
2022/06/14 05:00:27;;;;;;;14.82;9.07;;;10.00;99.90;;;;;;5051840;28;20062;-71
2022/06/14 05:03:17;;;;;;;17.58;10.23;;;10.10;99.90;;;;;;5112572;28;20086;-72
2022/06/14 05:05:46;;;;;;;14.88;9.35;;;10.20;99.90;;;;;;5112579;28;20126;-72
2022/06/14 05:08:43;;;;;;;14.07;8.52;;;10.30;99.90;;;;;;5114244;28;20375;-72
2022/06/14 05:11:19;;;;;;;20.10;9.13;;;10.40;99.90;;;;;;5116088;28;20078;-72
2022/06/14 05:13:50;;;;;;;16.88;9.57;;;10.60;99.90;;;;;;5098002;28;20093;-72
2022/06/14 05:16:23;;;;;;;16.70;9.50;;;10.70;99.90;;;;;;5097812;28;20118;-72
2022/06/14 05:19:02;;;;;;;22.05;10.02;;;10.80;99.90;;;;;;5097828;28;20032;-73
2022/06/14 05:21:32;;;;;;;21.27;9.57;;;10.90;99.90;;;;;;5115978;28;20118;-72
2022/06/14 05:23:59;;;;;;;14.68;8.88;;;11.10;99.90;;;;;;5115909;28;20647;-72
2022/06/14 05:26:31;;;;;;;17.88;10.52;;;11.30;99.90;;;;;;5113893;28;20376;-73
2022/06/14 05:29:12;;;;;;;18.55;9.82;;;11.40;99.90;;;;;;5097589;28;20482;-73
2022/06/14 05:31:58;;;;;;;14.45;8.18;;;11.50;99.90;;;;;;5115944;28;20031;-73
2022/06/14 05:34:27;;;;;;;21.58;10.55;;;11.70;99.90;;;;;;5097608;28;20044;-73
2022/06/14 05:36:57;;;;;;;16.60;7.00;;;11.90;99.90;;;;;;5097398;28;20130;-73
2022/06/14 05:39:37;;;;;;;14.55;6.93;;;12.00;99.90;;;;;;5097752;28;20122;-73
2022/06/14 05:42:33;;;;;;;17.77;8.27;;;12.20;99.90;;;;;;5097279;28;20052;-73
2022/06/14 05:45:01;;;;;;;16.42;7.10;;;12.30;99.90;;;;;;5063238;28;20052;-73
2022/06/14 05:47:37;;;;;;;14.85;7.18;;;12.50;99.90;;;;;;5094065;28;20048;-73
2022/06/14 05:50:13;;;;;;;12.43;4.57;;;12.70;99.90;;;;;;5095075;28;20093;-73
2022/06/14 05:52:45;;;;;;;9.90;4.13;;;12.80;99.90;;;;;;5093913;28;20039;-73
2022/06/14 05:55:33;;;;;;;9.85;4.80;;;13.00;99.90;;;;;;5094923;28;20055;-73
2022/06/14 05:58:06;;;;;;;7.50;3.88;;;13.10;99.90;;;;;;5091375;28;20480;-72
2022/06/14 06:00:35;;;;;;;9.18;4.25;;;13.30;99.90;;;;;;5093948;28;20047;-73
2022/06/14 06:03:12;;;;;;;11.57;3.83;;;13.50;99.90;;;;;;5095333;28;20230;-69
2022/06/14 06:05:40;;;;;;;10.80;3.90;;;13.60;99.90;;;;;;5094730;28;20048;-69
2022/06/14 06:08:28;;;;;;;12.18;4.00;;;13.80;99.90;;;;;;5094894;28;20048;-69
2022/06/14 06:11:00;;;;;;;8.68;3.67;;;13.90;99.90;;;;;;5093456;28;20048;-69
2022/06/14 06:13:39;;;;;;;11.63;4.15;;;14.10;99.90;;;;;;5094713;28;20034;-70
2022/06/14 06:16:20;;;;;;;11.80;4.00;;;14.30;99.90;;;;;;5076301;28;20043;-69
2022/06/14 06:19:08;;;;;;;10.15;3.80;;;14.40;99.90;;;;;;5076620;28;20119;-69
2022/06/14 06:21:37;;;;;;;6.72;3.05;;;14.60;99.90;;;;;;5093170;28;20047;-69
2022/06/14 06:24:36;;;;;;;8.23;2.97;;;14.80;99.90;;;;;;5076185;28;20499;-69
2022/06/14 06:27:08;;;;;;;9.70;2.67;;;15.00;99.90;;;;;;5091102;28;20615;-70
2022/06/14 06:29:42;;;;;;;8.48;2.83;;;15.10;99.90;;;;;;5094042;28;20118;-71
2022/06/14 06:32:08;;;;;;;13.43;3.33;;;15.40;99.90;;;;;;5093913;28;20036;-73
2022/06/14 06:34:35;;;;;;;6.57;3.30;;;15.70;99.90;;;;;;5092218;28;20641;-71
2022/06/14 06:37:10;;;;;;;8.55;3.28;;;16.00;99.90;;;;;;5091999;28;20511;-72
2022/06/14 06:40:08;;;;;;;6.35;2.65;;;16.20;99.90;;;;;;5093373;28;20047;-72
2022/06/14 06:42:44;;;;;;;6.97;2.92;;;16.50;99.90;;;;;;5091976;28;20036;-71
2022/06/14 06:45:22;;;;;;;7.93;2.50;;;16.70;99.90;;;;;;5074800;28;20047;-72
2022/06/14 06:48:11;;;;;;;8.82;2.97;;;17.00;99.90;;;;;;5075310;28;20121;-72
2022/06/14 06:50:50;;;;;;;7.90;2.72;;;17.10;99.90;;;;;;5093239;28;20044;-73
2022/06/14 06:53:21;;;;;;;6.43;2.33;;;17.40;99.90;;;;;;5092469;28;20495;-71
2022/06/14 06:55:53;;;;;;;5.93;2.00;;;17.60;99.90;;;;;;5088530;28;20032;-73
2022/06/14 06:58:43;;;;;;;7.35;2.47;;;17.80;99.90;;;;;;5094050;28;20127;-74
2022/06/14 07:01:27;;;;;;;7.55;1.90;;;17.90;99.90;;;;;;5093923;28;20031;-74
2022/06/14 07:04:15;;;;;;;6.65;2.83;;;18.20;99.90;;;;;;5093657;28;20071;-73
2022/06/14 07:06:57;;;;;;;7.07;2.25;;;18.30;99.90;;;;;;5093939;28;20384;-73
2022/06/14 07:09:32;;;;;;;4.63;1.77;;;18.50;99.90;;;;;;5094456;28;20046;-74
2022/06/14 07:12:10;;;;;;;8.13;2.05;;;18.70;99.90;;;;;;5094395;28;20076;-76
2022/06/14 07:14:44;;;;;;;3.85;2.40;;;18.90;99.90;;;;;;5094751;28;20055;-75
2022/06/14 07:17:30;;;;;;;6.05;2.15;;;19.00;99.90;;;;;;5096047;28;20052;-73
2022/06/14 07:20:07;;;;;;;5.88;1.77;;;18.80;99.90;;;;;;5097179;28;20048;-75
2022/06/14 07:22:56;;;;;;;7.50;1.40;;;18.80;99.90;;;;;;5096123;28;20044;-77
2022/06/14 07:25:27;;;;;;;3.90;2.10;;;18.80;99.90;;;;;;5079536;28;20080;-77
2022/06/14 07:28:03;;;;;;;5.28;1.40;;;18.80;99.90;;;;;;5094289;28;20081;-77
2022/06/14 07:30:36;;;;;;;5.07;1.80;;;18.50;99.90;;;;;;5097363;28;20555;-78
2022/06/14 07:33:02;;;;;;;5.90;1.63;;;18.30;99.90;;;;;;5098253;28;20040;-79
2022/06/14 07:35:43;;;;;;;4.85;1.52;;;18.40;99.90;;;;;;5097968;28;20127;-79
2022/06/14 07:38:32;;;;;;;7.25;1.52;;;18.60;99.90;;;;;;5096747;28;20130;-80
2022/06/14 07:41:28;;;;;;;5.15;1.50;;;19.00;99.90;;;;;;5096599;28;20044;-79
2022/06/14 07:44:01;;;;;;;5.18;1.67;;;19.50;99.90;;;;;;5072026;28;20098;-78
2022/06/14 07:46:40;;;;;;;3.63;1.40;;;19.60;99.90;;;;;;5096583;28;20060;-79
2022/06/14 07:49:27;;;;;;;6.50;1.58;;;19.40;99.90;;;;;;5097328;28;20035;-79
2022/06/14 07:52:01;;;;;;;5.50;1.70;;;19.40;99.90;;;;;;5080181;28;20040;-79
2022/06/14 07:54:33;;;;;;;4.53;1.60;;;19.60;99.90;;;;;;5096285;28;20044;-78
2022/06/14 07:57:31;;;;;;;3.80;1.40;;;19.70;99.90;;;;;;5096273;28;20109;-78
2022/06/14 08:03:22;;;;;;;6.47;1.70;;;20.20;99.90;;;;;;5096007;28;20048;-76
2022/06/14 08:05:51;;;;;;;4.60;1.70;;;20.70;99.90;;;;;;5092689;28;20369;-79
2022/06/14 08:08:38;;;;;;;5.03;1.50;;;20.90;99.90;;;;;;5093124;28;20507;-81
2022/06/14 08:11:10;;;;;;;6.30;1.40;;;21.20;99.90;;;;;;5094122;28;20101;-76
2022/06/14 08:13:53;;;;;;;3.38;1.30;;;21.20;99.90;;;;;;5079312;28;20040;-77
2022/06/14 08:16:22;;;;;;;5.35;1.10;;;20.90;99.90;;;;;;5092974;28;20040;-75
2022/06/14 08:18:54;;;;;;;2.63;1.20;;;20.60;99.90;;;;;;5074333;28;20048;-77
2022/06/14 08:21:27;;;;;;;4.90;1.60;;;20.30;99.90;;;;;;5092776;28;20047;-78
2022/06/14 08:24:03;;;;;;;3.67;1.65;;;20.00;99.90;;;;;;5091341;28;20032;-78
2022/06/14 08:26:50;;;;;;;5.18;1.52;;;19.80;99.90;;;;;;5072964;28;20040;-76
2022/06/14 08:29:25;;;;;;;2.70;0.90;;;20.10;99.90;;;;;;5092627;28;20047;-77
2022/06/14 08:31:57;;;;;;;2.53;1.00;;;20.50;99.90;;;;;;5091295;28;20123;-78
2022/06/14 08:35:01;;;;;;;4.13;0.88;;;20.70;99.90;;;;;;5092413;28;20046;-79
2022/06/14 08:37:44;;;;;;;3.28;1.30;;;20.70;99.90;;;;;;5057804;28;20083;-79
2022/06/14 08:40:13;;;;;;;3.58;1.17;;;20.30;99.90;;;;;;5092655;28;20040;-77
2022/06/14 08:42:48;;;;;;;4.30;1.17;;;20.30;99.90;;;;;;5092130;28;20039;-79
2022/06/14 08:45:34;;;;;;;4.00;1.27;;;20.60;99.90;;;;;;5094684;28;20134;-77
2022/06/14 08:48:09;;;;;;;2.83;1.02;;;21.10;99.90;;;;;;5094846;28;20126;-77
2022/06/14 08:50:43;;;;;;;3.47;1.10;;;21.50;99.90;;;;;;5091727;28;20392;-78
2022/06/14 08:53:34;;;;;;;3.22;1.00;;;21.20;99.90;;;;;;5090329;28;20071;-77
2022/06/14 08:56:22;;;;;;;2.58;1.17;;;20.60;99.90;;;;;;5093794;28;20085;-78
2022/06/14 08:59:12;;;;;;;3.42;1.30;;;20.10;99.90;;;;;;5094943;28;20441;-78
2022/06/14 09:01:47;;;;;;;3.65;1.20;;;19.80;99.90;;;;;;5095053;28;20040;-79
2022/06/14 09:04:19;;;;;;;5.40;1.50;;;20.20;99.90;;;;;;5095770;28;20048;-77
2022/06/14 09:06:54;;;;;;;3.10;1.48;;;20.80;99.90;;;;;;5096425;28;20364;-77
2022/06/14 09:09:57;;;;;;;5.57;2.40;;;21.30;99.90;;;;;;5094773;28;20056;-73
2022/06/14 09:12:50;;;;;;;3.17;1.20;;;21.70;99.90;;;;;;5095799;28;20044;-75
2022/06/14 09:15:57;;;;;;;6.63;1.40;;;22.00;99.90;;;;;;5077442;28;20122;-77
2022/06/14 09:18:48;;;;;;;5.60;1.58;;;21.90;99.90;;;;;;5094586;28;20112;-76
2022/06/14 09:21:16;;;;;;;5.65;1.73;;;21.40;99.90;;;;;;5094499;28;20048;-76
2022/06/14 09:24:00;;;;;;;3.22;1.35;;;20.80;99.90;;;;;;5094429;28;20054;-76
2022/06/14 09:26:44;;;;;;;3.85;1.35;;;20.50;99.90;;;;;;5093416;28;20633;-74
2022/06/14 09:29:34;;;;;;;1.67;1.10;;;20.10;99.90;;;;;;5095347;28;20051;-75
2022/06/14 09:32:15;;;;;;;4.28;1.55;;;20.10;99.90;;;;;;5094002;28;20040;-73
2022/06/14 09:34:44;;;;;;;4.25;1.70;;;20.40;99.90;;;;;;5094406;28;20044;-79
2022/06/14 09:37:37;;;;;;;2.60;1.03;;;20.70;99.90;;;;;;5094276;28;20452;-76
2022/06/14 09:40:06;;;;;;;3.17;1.25;;;21.00;99.90;;;;;;5093835;28;20281;-76
2022/06/14 09:43:05;;;;;;;2.80;1.30;;;20.80;99.90;;;;;;5095130;28;20040;-75
2022/06/14 09:45:37;;;;;;;3.67;1.20;;;20.60;99.90;;;;;;5076681;28;20147;-75
2022/06/14 09:48:16;;;;;;;3.65;1.88;;;20.20;99.90;;;;;;5095274;28;20055;-75
2022/06/14 09:51:25;;;;;;;3.80;1.60;;;19.90;99.90;;;;;;5073427;28;20047;-74
2022/06/14 09:54:00;;;;;;;3.17;1.48;;;19.80;99.90;;;;;;5074440;28;20040;-74
2022/06/14 09:56:52;;;;;;;4.88;1.73;;;19.70;99.90;;;;;;5071578;28;20045;-77
2022/06/14 09:59:27;;;;;;;4.72;1.50;;;19.70;99.90;;;;;;5073605;28;20460;-75
2022/06/14 10:02:14;;;;;;;4.88;1.83;;;20.10;99.90;;;;;;5073575;28;20090;-76
2022/06/14 10:05:34;;;;;;;4.18;1.75;;;20.70;99.90;;;;;;5072474;28;20397;-76
2022/06/14 10:08:03;;;;;;;2.80;1.35;;;21.40;99.90;;;;;;5007834;28;20038;-71
2022/06/14 10:10:42;;;;;;;3.80;1.10;;;21.90;99.90;;;;;;5120251;27;20519;-78
2022/06/14 10:13:49;;;;;;;3.60;1.55;;;22.20;99.90;;;;;;5093591;28;20036;-75
2022/06/14 10:16:34;;;;;;;2.83;1.17;;;22.00;99.90;;;;;;5075802;28;20044;-76
2022/06/14 10:19:22;;;;;;;2.97;1.13;;;21.60;98.80;;;;;;5092186;28;20048;-76
2022/06/14 10:22:14;;;;;;;3.40;1.50;;;21.30;99.40;;;;;;5093708;28;20084;-76
2022/06/14 10:25:10;;;;;;;3.90;1.40;;;21.50;99.90;;;;;;5093281;28;20404;-75
2022/06/14 10:28:13;;;;;;;2.05;0.93;;;22.00;99.90;;;;;;5091179;28;20369;-77
2022/06/14 10:31:05;;;;;;;3.63;1.13;;;22.20;99.40;;;;;;5093089;28;20454;-77
2022/06/14 10:33:55;;;;;;;7.00;1.77;;;22.20;98.20;;;;;;5094172;28;20085;-76
2022/06/14 10:37:06;;;;;;;3.08;1.52;;;21.90;99.30;;;;;;5093149;28;20328;-75
2022/06/14 10:39:43;;;;;;;3.33;1.58;;;21.90;99.90;;;;;;5092861;28;20105;-76
2022/06/14 10:42:21;;;;;;;4.25;1.50;;;21.90;99.90;;;;;;5093001;28;20036;-75
2022/06/14 10:45:12;;;;;;;4.75;1.40;;;22.00;99.60;;;;;;5105016;28;20108;-77
2022/06/14 10:47:44;;;;;;;2.88;1.15;;;22.30;99.00;;;;;;5096288;28;20156;-76
2022/06/14 10:50:37;;;;;;;3.60;1.48;;;22.70;99.50;;;;;;5114384;28;20032;-75
2022/06/14 10:53:26;;;;;;;4.10;1.42;;;23.00;98.90;;;;;;5079022;28;20043;-76
2022/06/14 10:55:55;;;;;;;2.83;0.90;;;23.10;97.30;;;;;;5100188;28;20518;-74
2022/06/14 10:58:37;;;;;;;2.33;0.95;;;23.50;96.90;;;;;;5095062;28;20472;-75
2022/06/14 11:01:29;;;;;;;3.55;1.10;;;23.90;96.20;;;;;;5114100;28;20043;-75
2022/06/14 11:04:15;;;;;;;2.75;1.23;;;23.80;91.40;;;;;;5113885;28;20124;-76
2022/06/14 11:07:06;;;;;;;3.60;0.90;;;23.50;92.60;;;;;;5095158;28;20439;-75
2022/06/14 11:09:58;;;;;;;3.90;1.10;;;23.00;93.10;;;;;;5095613;28;20134;-75
2022/06/14 11:12:50;;;;;;;4.28;1.30;;;22.40;94.60;;;;;;5113784;28;20035;-75
2022/06/14 11:15:35;;;;;;;4.03;1.10;;;21.70;95.00;;;;;;5095473;28;20044;-76
2022/06/14 11:18:24;;;;;;;1.60;0.90;;;21.00;96.70;;;;;;5078597;28;20043;-74
2022/06/14 11:21:00;;;;;;;2.33;1.05;;;20.60;98.60;;;;;;5095674;28;20391;-74
2022/06/14 11:23:46;;;;;;;3.20;1.13;;;20.30;98.20;;;;;;5078721;28;20042;-74
2022/06/14 11:26:47;;;;;;;3.47;1.10;;;20.10;99.30;;;;;;5092485;28;20048;-72
2022/06/14 11:29:42;;;;;;;4.53;0.90;;;20.00;99.90;;;;;;5027456;28;20052;-76
2022/06/14 11:32:31;;;;;;;2.28;1.00;;;19.90;99.90;;;;;;5078305;28;20043;-75
2022/06/14 11:35:13;;;;;;;3.30;0.90;;;19.90;99.90;;;;;;5113574;28;20118;-74
2022/06/14 11:38:25;;;;;;;3.17;1.00;;;19.90;99.90;;;;;;5095223;28;20144;-75
2022/06/14 11:40:57;;;;;;;5.25;1.25;;;20.20;99.90;;;;;;5095413;28;20118;-73
2022/06/14 11:43:51;;;;;;;3.22;1.02;;;20.70;99.90;;;;;;5095032;28;20040;-74
2022/06/14 11:46:42;;;;;;;3.83;1.13;;;21.40;99.90;;;;;;5094805;28;20036;-76
2022/06/14 11:49:19;;;;;;;6.35;1.20;;;21.80;97.90;;;;;;5113209;28;20067;-75
2022/06/14 11:52:26;;;;;;;4.07;1.27;;;22.40;98.90;;;;;;5113151;28;20032;-78
2022/06/14 11:54:54;;;;;;;3.70;1.58;;;22.80;96.00;;;;;;5095067;28;20058;-75
2022/06/14 11:57:26;;;;;;;3.08;0.90;;;22.70;94.80;;;;;;5111022;28;20391;-75
2022/06/14 12:00:22;;;;;;;2.60;0.90;;;22.70;94.40;;;;;;5113275;28;20039;-75
2022/06/14 12:03:01;;;;;;;2.13;0.73;;;22.50;96.10;;;;;;5095234;28;20429;-75
2022/06/14 12:05:44;;;;;;;5.13;1.40;;;22.10;95.60;;;;;;5094803;28;20071;-75
2022/06/14 12:08:22;;;;;;;3.22;1.30;;;21.80;96.00;;;;;;5096267;28;20077;-75
2022/06/14 12:10:52;;;;;;;4.03;1.20;;;21.40;96.40;;;;;;5094585;28;20054;-73
2022/06/14 12:13:49;;;;;;;4.13;1.25;;;21.00;96.60;;;;;;5112977;28;20088;-74
2022/06/14 12:16:22;;;;;;;3.88;1.52;;;20.70;97.50;;;;;;5094927;28;20070;-74
2022/06/14 12:19:21;;;;;;;3.03;1.25;;;20.40;98.10;;;;;;5098850;28;20479;-75
2022/06/14 12:21:59;;;;;;;4.13;1.23;;;20.30;99.90;;;;;;5098552;28;20570;-72
2022/06/14 12:27:19;;;;;;;4.22;1.45;;;20.10;99.30;;;;;;5114566;28;20043;-74
2022/06/14 12:29:50;;;;;;;2.45;1.00;;;20.00;97.90;;;;;;5116975;28;20108;-74
2022/06/14 12:32:34;;;;;;;5.05;1.27;;;20.00;97.10;;;;;;5098806;28;20028;-74
2022/06/14 12:35:07;;;;;;;3.00;1.15;;;19.90;97.90;;;;;;5098981;28;20048;-73
2022/06/14 12:37:47;;;;;;;4.18;1.52;;;20.00;99.20;;;;;;5116710;28;20050;-74
2022/06/14 12:40:32;;;;;;;3.63;0.95;;;20.00;98.70;;;;;;5098548;28;20122;-74
2022/06/14 12:43:21;;;;;;;2.85;1.20;;;20.20;98.80;;;;;;5098608;28;20051;-74
2022/06/14 12:46:07;;;;;;;2.80;1.33;;;20.30;98.40;;;;;;5116406;28;20060;-74
2022/06/14 12:48:55;;;;;;;3.58;1.25;;;20.50;98.90;;;;;;5098500;28;20032;-75
2022/06/14 12:51:41;;;;;;;3.17;1.17;;;20.50;98.20;;;;;;5116270;28;20036;-73
2022/06/14 12:54:51;;;;;;;4.28;1.20;;;20.40;96.40;;;;;;5098151;28;20043;-73
2022/06/14 12:57:51;;;;;;;4.15;1.30;;;20.40;98.40;;;;;;5109204;28;20044;-73
2022/06/14 13:00:27;;;;;;;3.67;1.60;;;20.40;98.50;;;;;;5098105;28;20039;-74
2022/06/14 13:03:01;;;;;;;6.07;1.30;;;20.50;98.50;;;;;;5098251;28;20062;-74
2022/06/14 13:05:34;;;;;;;3.65;1.23;;;20.60;99.10;;;;;;5098080;28;20043;-74
2022/06/14 13:08:33;;;;;;;4.05;1.27;;;20.70;98.60;;;;;;5098216;28;20348;-73
2022/06/14 13:11:30;;;;;;;3.55;1.48;;;20.90;99.20;;;;;;5098047;28;20051;-75
2022/06/14 13:14:12;;;;;;;2.38;1.33;;;21.30;98.00;;;;;;5097859;28;20458;-74
2022/06/14 13:17:08;;;;;;;3.95;1.27;;;21.50;97.40;;;;;;5116320;28;20045;-75
2022/06/14 13:19:41;;;;;;;3.80;1.02;;;21.50;96.60;;;;;;5097632;28;20047;-73
2022/06/14 13:22:31;;;;;;;4.15;0.98;;;21.30;97.70;;;;;;5116232;28;20040;-73
2022/06/14 13:25:09;;;;;;;4.68;1.30;;;21.20;97.20;;;;;;5115984;28;20043;-73
2022/06/14 13:27:45;;;;;;;3.38;1.08;;;21.00;97.90;;;;;;5095336;28;20543;-72
2022/06/14 13:30:26;;;;;;;4.15;1.30;;;20.90;98.30;;;;;;5097053;28;20145;-74
2022/06/14 13:33:00;;;;;;;5.80;1.42;;;20.80;98.60;;;;;;5115873;28;20047;-74
2022/06/14 13:35:41;;;;;;;5.28;1.40;;;20.70;98.00;;;;;;5097669;28;20043;-74
2022/06/14 13:38:40;;;;;;;4.80;1.10;;;20.40;98.40;;;;;;5115659;28;20360;-73
2022/06/14 13:41:12;;;;;;;4.53;1.50;;;20.40;98.50;;;;;;5096372;28;20123;-74
2022/06/14 13:43:50;;;;;;;3.72;1.23;;;20.40;99.20;;;;;;5097486;28;20036;-73
2022/06/14 13:46:23;;;;;;;3.22;1.33;;;20.40;99.20;;;;;;5115404;28;20051;-74
2022/06/14 13:49:01;;;;;;;5.20;1.63;;;20.60;98.50;;;;;;5097247;28;20112;-74
2022/06/14 13:51:31;;;;;;;4.88;1.45;;;20.60;98.30;;;;;;5115470;28;20434;-73
2022/06/14 13:54:23;;;;;;;2.92;1.02;;;20.60;99.20;;;;;;5114426;28;20051;-74
2022/06/14 13:57:14;;;;;;;3.25;1.20;;;20.70;99.90;;;;;;5083923;28;20047;-73
2022/06/14 13:59:45;;;;;;;3.85;1.38;;;20.70;97.00;;;;;;5115218;28;20031;-75
2022/06/14 14:02:48;;;;;;;2.85;1.20;;;20.70;97.20;;;;;;5115208;28;20075;-73
2022/06/14 14:05:36;;;;;;;4.00;1.48;;;20.70;97.60;;;;;;5096722;28;20043;-74
2022/06/14 14:08:15;;;;;;;3.33;1.40;;;20.60;97.20;;;;;;5114801;28;20036;-75
2022/06/14 14:10:54;;;;;;;2.53;1.30;;;20.60;97.60;;;;;;5096843;28;20127;-75
2022/06/14 14:13:28;;;;;;;4.88;1.40;;;20.50;98.70;;;;;;5080000;28;20052;-75